createdAt,value
2017-06-03T09:22:52.711Z,98292
2017-06-03T09:23:09.638Z,98303
2017-06-03T09:23:20.826Z,98292
2017-06-03T09:23:34.751Z,98289
2017-06-03T09:23:48.771Z,98295
2017-06-03T09:24:05.734Z,98289
2017-06-03T09:24:30.763Z,98295
2017-06-03T09:24:41.954Z,98280
2017-06-03T09:24:59.107Z,98289
2017-06-03T09:25:16.809Z,98292
2017-06-03T09:25:30.448Z,98289
2017-06-03T09:25:47.425Z,98292
2017-06-03T09:26:01.425Z,98286
2017-06-03T09:26:15.461Z,98283
2017-06-03T09:26:32.450Z,98286
2017-06-03T09:26:49.253Z,98292
2017-06-03T09:27:08.913Z,98292
2017-06-03T09:27:20.200Z,98295
2017-06-03T09:27:37.326Z,98292
2017-06-03T09:27:51.334Z,98286
2017-06-03T09:28:05.574Z,98286
2017-06-03T09:28:16.785Z,98292
2017-06-03T09:28:30.740Z,98283
2017-06-03T09:28:44.693Z,98275
2017-06-03T09:29:05.008Z,98289
2017-06-03T09:29:19.035Z,98300
2017-06-03T09:29:32.903Z,98280
2017-06-03T09:29:49.921Z,98289
2017-06-03T09:30:06.839Z,98300
2017-06-03T09:30:24.151Z,98289
2017-06-03T09:30:38.404Z,98294
2017-06-03T09:30:49.799Z,98286
2017-06-03T09:31:04.156Z,98286
2017-06-03T09:31:21.144Z,98280
2017-06-03T09:31:38.095Z,98291
2017-06-03T09:31:55.090Z,98286
2017-06-03T09:32:09.278Z,98280
2017-06-03T09:32:26.326Z,98291
2017-06-03T09:32:40.513Z,98291
2017-06-03T09:32:54.673Z,98275
2017-06-03T09:33:14.641Z,98283
2017-06-03T09:33:31.628Z,98283
2017-06-03T09:33:48.673Z,98285
2017-06-03T09:34:02.796Z,98275
2017-06-03T09:34:28.341Z,98272
2017-06-03T09:34:48.241Z,98279
2017-06-03T09:35:02.397Z,98274
2017-06-03T09:35:25.514Z,98282
2017-06-03T09:35:39.574Z,98279
2017-06-03T09:35:53.591Z,98274
2017-06-03T09:36:10.420Z,98282
2017-06-03T09:36:24.320Z,98279
2017-06-03T09:36:38.286Z,98279
2017-06-03T09:36:49.387Z,98279
2017-06-03T09:37:06.352Z,98274
2017-06-03T09:37:26.280Z,98271
2017-06-03T09:37:37.372Z,98274
2017-06-03T09:37:57.366Z,98274
2017-06-03T09:38:08.367Z,98274
2017-06-03T09:38:26.005Z,98268
2017-06-03T09:38:37.129Z,98274
2017-06-03T09:38:48.276Z,98271
2017-06-03T09:39:03.124Z,98271
2017-06-03T09:39:19.793Z,98271
2017-06-03T09:39:36.736Z,98265
2017-06-03T09:39:47.917Z,98268
2017-06-03T09:39:59.007Z,98268
2017-06-03T09:40:18.805Z,98260
2017-06-03T09:40:29.955Z,98265
2017-06-03T09:40:41.165Z,98268
2017-06-03T09:41:03.721Z,98268
2017-06-03T09:41:20.575Z,98274
2017-06-03T09:41:43.248Z,98257
2017-06-03T09:42:05.906Z,98265
2017-06-03T09:42:22.665Z,98260
2017-06-03T09:42:36.657Z,98260
